Time;durP1;ratioP1;P1;durP2;ratioP2;P2;SDS_P1;SDS_P2;PMS_P1;PMS_P2;Temp;Humidity;BMP_temperature;BMP_pressure;BME280_temperature;BME280_humidity;BME280_pressure;Samples;Min_cycle;Max_cycle;Signal;HPM_P1;HPM_P2
2024/01/19 00:01:44;;;;;;;2.60;0.20;;;1.30;99.90;;;;;;5070903;28;20571;-89
2024/01/19 00:04:10;;;;;;;4.15;0.10;;;1.30;99.90;;;;;;5070711;28;20394;-90
2024/01/19 00:06:39;;;;;;;4.90;0.43;;;1.20;99.90;;;;;;5071577;28;20467;-91
2024/01/19 00:09:05;;;;;;;4.95;0.20;;;1.20;99.90;;;;;;5069650;28;20989;-89
2024/01/19 00:11:31;;;;;;;4.50;0.10;;;1.10;99.90;;;;;;5071462;28;20409;-91
2024/01/19 00:13:57;;;;;;;6.15;0.10;;;1.10;99.90;;;;;;5069928;28;20498;-88
2024/01/19 00:16:23;;;;;;;3.83;0.40;;;1.20;99.90;;;;;;5070980;28;20871;-91
2024/01/19 00:18:48;;;;;;;6.05;0.70;;;1.00;99.90;;;;;;5070455;28;20819;-88
2024/01/19 00:21:15;;;;;;;3.83;0.20;;;1.50;99.90;;;;;;5069716;28;20751;-89
2024/01/19 00:23:40;;;;;;;4.22;0.20;;;1.10;99.90;;;;;;5070900;28;20762;-92
2024/01/19 00:26:07;;;;;;;4.70;0.22;;;1.10;99.90;;;;;;5069697;28;20420;-93
2024/01/19 00:28:32;;;;;;;5.38;0.30;;;1.00;99.90;;;;;;5071217;28;20485;-91
2024/01/19 00:30:58;;;;;;;4.78;0.52;;;1.00;99.90;;;;;;5086876;28;20438;-91
2024/01/19 00:33:24;;;;;;;4.68;0.30;;;1.20;99.90;;;;;;5088032;28;20405;-92
2024/01/19 00:35:49;;;;;;;5.40;0.20;;;1.40;99.90;;;;;;5070047;28;20761;-92
2024/01/19 00:38:15;;;;;;;4.80;0.40;;;1.00;99.90;;;;;;5070961;28;20406;-90
2024/01/19 00:40:41;;;;;;;5.47;0.60;;;0.70;99.90;;;;;;5070130;28;20417;-89
2024/01/19 00:43:06;;;;;;;5.53;0.40;;;0.90;99.90;;;;;;5069503;28;20432;-90
2024/01/19 00:45:32;;;;;;;4.47;0.25;;;0.70;99.90;;;;;;5070756;28;20540;-90
2024/01/19 00:47:58;;;;;;;3.97;0.30;;;0.80;99.90;;;;;;5069157;28;20413;-89
2024/01/19 00:50:23;;;;;;;6.13;0.43;;;0.70;99.90;;;;;;5087568;28;20830;-90
2024/01/19 00:52:49;;;;;;;4.40;0.30;;;0.70;99.90;;;;;;5085898;28;20708;-88
2024/01/19 00:55:14;;;;;;;4.80;0.30;;;0.70;99.90;;;;;;5086788;28;20444;-88
2024/01/19 00:57:40;;;;;;;4.72;0.30;;;0.60;99.90;;;;;;5069453;28;20490;-88
2024/01/19 01:00:06;;;;;;;6.33;0.30;;;0.60;99.90;;;;;;5069839;28;20885;-90
2024/01/19 01:02:32;;;;;;;3.92;0.22;;;0.50;99.90;;;;;;5086410;28;20448;-87
2024/01/19 01:04:58;;;;;;;5.50;0.33;;;0.50;99.90;;;;;;5085369;28;20470;-88
2024/01/19 01:07:24;;;;;;;3.75;0.40;;;0.40;99.90;;;;;;5086694;28;20485;-88
2024/01/19 01:09:49;;;;;;;5.00;0.30;;;0.40;99.90;;;;;;5067870;28;21315;-89
2024/01/19 01:12:15;;;;;;;3.40;0.30;;;0.30;99.90;;;;;;5070134;28;20912;-88
2024/01/19 01:14:41;;;;;;;2.73;0.20;;;0.30;99.90;;;;;;5068628;28;20416;-88
2024/01/19 01:17:06;;;;;;;5.40;0.50;;;0.20;99.90;;;;;;5086592;28;20496;-88
2024/01/19 01:19:32;;;;;;;3.95;0.40;;;0.20;99.90;;;;;;5069668;28;20405;-87
2024/01/19 01:21:58;;;;;;;5.38;0.52;;;0.20;99.90;;;;;;5068592;28;20426;-88
2024/01/19 01:24:24;;;;;;;4.20;0.50;;;0.10;99.90;;;;;;5069750;28;20494;-88
2024/01/19 01:26:50;;;;;;;6.10;0.60;;;0.10;99.90;;;;;;5084814;28;20468;-89
2024/01/19 01:29:15;;;;;;;5.22;0.30;;;0.10;99.90;;;;;;5069930;28;20915;-88
2024/01/19 01:31:41;;;;;;;5.93;0.63;;;0.00;99.90;;;;;;5068920;28;20398;-87
2024/01/19 01:34:07;;;;;;;7.40;0.80;;;0.00;99.90;;;;;;5073829;28;20521;-87
2024/01/19 01:36:33;;;;;;;7.07;1.00;;;0.00;99.90;;;;;;5073372;28;20398;-88
2024/01/19 01:38:58;;;;;;;8.98;1.10;;;0.00;99.90;;;;;;5073568;28;20505;-88
2024/01/19 01:41:24;;;;;;;9.10;1.50;;;0.00;99.90;;;;;;5073730;28;20558;-88
2024/01/19 01:43:50;;;;;;;6.37;1.30;;;-0.10;99.90;;;;;;5072863;28;20418;-88
2024/01/19 01:46:15;;;;;;;12.07;1.25;;;0.20;99.90;;;;;;5074300;28;20438;-89
2024/01/19 01:48:41;;;;;;;8.15;0.70;;;-0.10;99.90;;;;;;5072335;28;20993;-88
2024/01/19 01:51:08;;;;;;;6.93;0.90;;;-0.20;99.90;;;;;;5074432;28;20406;-88
2024/01/19 01:53:35;;;;;;;7.45;1.05;;;-0.10;99.90;;;;;;5072679;28;20398;-89
2024/01/19 01:56:01;;;;;;;6.70;0.90;;;-0.20;99.90;;;;;;5073507;28;20394;-89
2024/01/19 01:58:27;;;;;;;5.22;0.60;;;-0.10;99.90;;;;;;5073026;28;20398;-89
2024/01/19 02:00:53;;;;;;;6.43;0.70;;;-0.10;99.90;;;;;;5072307;28;20556;-88
2024/01/19 02:03:18;;;;;;;6.97;0.50;;;-0.10;99.90;;;;;;5089592;28;20440;-88
2024/01/19 02:05:44;;;;;;;7.70;0.60;;;0.00;99.90;;;;;;5071390;28;20432;-87
2024/01/19 02:08:10;;;;;;;8.73;0.63;;;0.10;99.90;;;;;;5073646;28;20406;-90
2024/01/19 02:10:36;;;;;;;8.17;0.83;;;0.20;99.90;;;;;;5071745;28;20484;-88
2024/01/19 02:13:02;;;;;;;6.07;0.60;;;0.20;99.90;;;;;;5072524;28;20413;-87
2024/01/19 02:15:30;;;;;;;8.90;0.50;;;0.30;99.90;;;;;;5072074;28;20937;-90
2024/01/19 02:17:55;;;;;;;9.25;0.80;;;0.30;99.90;;;;;;5088309;28;20477;-88
2024/01/19 02:20:21;;;;;;;7.50;0.90;;;0.30;99.90;;;;;;5072488;28;20485;-87
2024/01/19 02:22:48;;;;;;;10.00;0.80;;;0.30;99.90;;;;;;5070924;28;20421;-87
2024/01/19 02:25:14;;;;;;;10.15;1.05;;;0.30;99.90;;;;;;5089140;28;20398;-87
2024/01/19 02:27:40;;;;;;;9.50;0.60;;;0.40;99.90;;;;;;5071516;28;20445;-86
2024/01/19 02:30:08;;;;;;;7.30;1.17;;;0.20;99.90;;;;;;5088914;28;20438;-87
2024/01/19 02:32:33;;;;;;;5.80;0.60;;;0.30;99.90;;;;;;5071230;28;20433;-88
2024/01/19 02:34:59;;;;;;;11.53;1.13;;;0.30;99.90;;;;;;5072118;28;20413;-88
2024/01/19 02:37:24;;;;;;;11.23;1.03;;;0.30;99.90;;;;;;5072336;28;20481;-88
2024/01/19 02:39:50;;;;;;;14.27;1.25;;;0.30;99.90;;;;;;5071314;28;20494;-90
2024/01/19 02:42:16;;;;;;;12.90;1.00;;;0.40;99.90;;;;;;5072231;28;20505;-89
2024/01/19 02:44:41;;;;;;;10.97;0.80;;;0.70;99.90;;;;;;5070142;28;20461;-88
2024/01/19 02:47:07;;;;;;;9.23;1.00;;;0.50;99.90;;;;;;5072415;28;20394;-88
2024/01/19 02:49:32;;;;;;;11.40;0.95;;;0.50;99.90;;;;;;5071403;28;20405;-86
2024/01/19 02:51:58;;;;;;;14.13;1.10;;;0.50;99.90;;;;;;5071597;28;20905;-86
2024/01/19 02:54:24;;;;;;;10.97;0.93;;;0.60;99.90;;;;;;5071244;28;20472;-88
2024/01/19 02:56:49;;;;;;;9.70;0.80;;;0.60;99.90;;;;;;5071961;28;20401;-92
2024/01/19 02:59:15;;;;;;;12.90;0.70;;;0.60;99.90;;;;;;5072834;28;20413;-92
2024/01/19 03:01:40;;;;;;;13.63;0.85;;;0.90;99.90;;;;;;5088236;28;20936;-92
2024/01/19 03:04:06;;;;;;;10.60;0.50;;;0.70;99.90;;;;;;5072979;28;20765;-94
2024/01/19 03:06:32;;;;;;;7.53;0.30;;;0.60;99.90;;;;;;5070245;28;20800;-87
2024/01/19 03:08:57;;;;;;;7.10;0.40;;;0.80;99.90;;;;;;5071532;28;20402;-89
2024/01/19 03:11:23;;;;;;;8.05;0.60;;;0.70;99.90;;;;;;5087486;28;20409;-86
2024/01/19 03:13:50;;;;;;;6.30;0.50;;;0.70;99.90;;;;;;5071616;28;20757;-87
2024/01/19 03:16:16;;;;;;;4.82;0.30;;;0.70;99.90;;;;;;5071513;28;20402;-89
2024/01/19 03:18:42;;;;;;;5.00;0.38;;;0.90;99.90;;;;;;5069782;28;20424;-87
2024/01/19 03:21:08;;;;;;;3.37;0.30;;;0.60;99.90;;;;;;5072235;28;20409;-87
2024/01/19 03:23:34;;;;;;;3.33;0.10;;;0.50;99.90;;;;;;5086187;28;20431;-87
2024/01/19 03:26:00;;;;;;;2.70;0.10;;;0.50;99.90;;;;;;5071522;28;20966;-88
2024/01/19 03:28:25;;;;;;;3.13;0.17;;;0.40;99.90;;;;;;5070269;28;20406;-88
2024/01/19 03:30:51;;;;;;;3.25;0.50;;;0.40;99.90;;;;;;5070619;28;20402;-87
2024/01/19 03:33:16;;;;;;;3.57;0.20;;;0.40;99.90;;;;;;5088033;28;20893;-90
2024/01/19 03:35:42;;;;;;;3.37;0.30;;;0.50;99.90;;;;;;5088028;28;20454;-91
2024/01/19 03:38:08;;;;;;;2.63;0.10;;;0.50;99.90;;;;;;5071692;28;20510;-89
2024/01/19 03:40:34;;;;;;;3.38;0.20;;;0.50;99.90;;;;;;5069965;28;20888;-88
2024/01/19 03:43:00;;;;;;;4.15;0.30;;;0.70;99.90;;;;;;5088224;28;20430;-88
2024/01/19 03:45:25;;;;;;;5.47;0.50;;;0.40;99.90;;;;;;5070133;28;20418;-91
2024/01/19 03:47:51;;;;;;;4.78;0.30;;;0.40;99.90;;;;;;5071728;28;21273;-88
2024/01/19 03:50:17;;;;;;;5.40;0.57;;;0.50;99.90;;;;;;5070910;28;20406;-88
2024/01/19 03:52:43;;;;;;;9.17;0.60;;;0.30;99.90;;;;;;5087535;28;20410;-87
2024/01/19 03:55:09;;;;;;;9.70;0.80;;;0.10;99.90;;;;;;5087460;28;20765;-87
2024/01/19 03:57:34;;;;;;;9.27;0.60;;;0.30;99.90;;;;;;5069829;28;20406;-90
2024/01/19 04:00:00;;;;;;;9.73;0.93;;;0.30;99.90;;;;;;5071182;28;20410;-88
2024/01/19 04:02:26;;;;;;;12.35;1.10;;;0.20;99.90;;;;;;5069416;28;20425;-88
2024/01/19 04:04:51;;;;;;;14.50;0.90;;;0.30;99.90;;;;;;5070951;28;20441;-88
2024/01/19 04:07:17;;;;;;;12.02;0.90;;;0.30;99.90;;;;;;5070684;28;20754;-87
2024/01/19 04:09:43;;;;;;;13.27;1.47;;;0.30;99.90;;;;;;5070470;28;20394;-88
2024/01/19 04:12:14;;;;;;;13.70;0.97;;;0.60;99.90;;;;;;5069968;28;20417;-86
2024/01/19 04:14:41;;;;;;;13.15;1.48;;;0.30;99.90;;;;;;5066572;28;20427;-86
2024/01/19 04:17:06;;;;;;;9.52;0.70;;;0.30;99.90;;;;;;5067276;28;20396;-90
2024/01/19 04:19:32;;;;;;;10.80;0.60;;;0.60;99.90;;;;;;5049522;28;20994;-88
2024/01/19 04:21:58;;;;;;;12.38;1.08;;;0.30;99.90;;;;;;5067960;28;20514;-87
2024/01/19 04:24:23;;;;;;;9.90;0.52;;;0.20;99.90;;;;;;5049088;28;20412;-86
2024/01/19 04:26:49;;;;;;;10.90;0.60;;;0.20;99.90;;;;;;5050346;28;20418;-88
2024/01/19 04:29:14;;;;;;;10.57;0.40;;;0.10;99.90;;;;;;5050100;28;20419;-88
2024/01/19 04:31:40;;;;;;;7.82;0.50;;;0.10;99.90;;;;;;5066593;28;20408;-89
2024/01/19 04:34:05;;;;;;;8.83;0.50;;;0.00;99.90;;;;;;5067060;28;20902;-88
2024/01/19 04:36:31;;;;;;;6.40;0.40;;;0.00;99.90;;;;;;5049256;28;20400;-88
2024/01/19 04:38:57;;;;;;;7.25;0.43;;;-0.10;99.90;;;;;;5050216;28;20422;-89
2024/01/19 04:41:22;;;;;;;6.28;0.30;;;-0.20;99.90;;;;;;5049705;28;20392;-89
2024/01/19 04:43:48;;;;;;;6.93;0.63;;;-0.20;99.90;;;;;;5050409;28;20400;-88
2024/01/19 04:46:13;;;;;;;4.72;0.40;;;-0.30;99.90;;;;;;5049557;28;20403;-88
2024/01/19 04:48:39;;;;;;;7.00;0.50;;;-0.30;99.90;;;;;;5068812;28;20435;-89
2024/01/19 04:51:05;;;;;;;6.00;0.43;;;-0.40;99.90;;;;;;5069814;28;20444;-87
2024/01/19 04:53:31;;;;;;;5.90;0.40;;;-0.40;99.90;;;;;;5069421;28;20402;-87
2024/01/19 04:55:56;;;;;;;7.75;0.40;;;-0.40;99.90;;;;;;5070294;28;20413;-88
2024/01/19 04:58:22;;;;;;;6.27;0.40;;;-0.50;99.90;;;;;;5085445;28;20402;-89
2024/01/19 05:00:48;;;;;;;6.72;0.40;;;-0.50;99.90;;;;;;5070460;28;20784;-88
2024/01/19 05:03:13;;;;;;;6.75;0.40;;;-0.60;99.90;;;;;;5084924;28;20486;-88
2024/01/19 05:05:39;;;;;;;7.90;0.52;;;-0.70;99.90;;;;;;5069639;28;20489;-88
2024/01/19 05:08:05;;;;;;;6.87;0.40;;;-0.70;99.90;;;;;;5069299;28;20449;-88
2024/01/19 05:10:32;;;;;;;7.73;0.60;;;-0.80;99.90;;;;;;5069480;28;20535;-88
2024/01/19 05:12:58;;;;;;;8.18;0.40;;;-0.80;99.90;;;;;;5086886;28;20433;-87
2024/01/19 05:15:23;;;;;;;9.10;0.50;;;-0.90;99.90;;;;;;5068560;28;20429;-88
2024/01/19 05:17:49;;;;;;;7.77;0.47;;;-0.90;99.90;;;;;;5069779;28;20414;-87
2024/01/19 05:20:15;;;;;;;6.90;0.57;;;-1.00;99.90;;;;;;5068760;28;21106;-88
2024/01/19 05:22:41;;;;;;;9.00;0.60;;;-1.00;99.90;;;;;;5069379;28;20912;-88
2024/01/19 05:25:07;;;;;;;9.30;0.60;;;-1.50;99.90;;;;;;5068852;28;20402;-88
2024/01/19 05:27:33;;;;;;;8.77;0.50;;;-1.10;99.90;;;;;;5069177;28;20398;-89
2024/01/19 05:29:58;;;;;;;9.43;0.80;;;-1.10;99.90;;;;;;5069259;28;20571;-88
2024/01/19 05:32:24;;;;;;;10.37;0.73;;;-1.20;99.90;;;;;;5068647;28;20406;-88
2024/01/19 05:34:50;;;;;;;7.97;0.73;;;-1.00;99.90;;;;;;5069817;28;20868;-88
2024/01/19 05:37:15;;;;;;;9.25;0.98;;;-1.20;99.90;;;;;;5066746;28;20422;-89
2024/01/19 05:39:41;;;;;;;7.47;1.00;;;-1.20;99.90;;;;;;5069926;28;20464;-88
2024/01/19 05:42:07;;;;;;;7.40;0.70;;;-1.20;99.90;;;;;;5067772;28;21354;-88
2024/01/19 05:44:33;;;;;;;11.38;1.00;;;-1.20;99.90;;;;;;5069546;28;20410;-89
2024/01/19 05:46:58;;;;;;;10.53;0.90;;;-1.10;99.90;;;;;;5069330;28;20426;-89
2024/01/19 05:49:24;;;;;;;7.87;0.67;;;-1.10;99.90;;;;;;5069067;28;20398;-93
2024/01/19 05:51:50;;;;;;;11.30;0.70;;;-0.70;99.90;;;;;;5069817;28;20405;-88
2024/01/19 05:54:16;;;;;;;11.00;0.85;;;-0.80;99.90;;;;;;5068440;28;20394;-89
2024/01/19 05:56:41;;;;;;;14.65;1.05;;;-0.60;99.90;;;;;;5069513;28;20402;-88
2024/01/19 05:59:07;;;;;;;14.43;0.90;;;-0.40;99.90;;;;;;5067921;28;20406;-87
2024/01/19 06:01:32;;;;;;;16.67;0.90;;;-0.20;99.90;;;;;;5082423;28;20448;-88
2024/01/19 06:03:58;;;;;;;14.13;0.80;;;0.00;99.90;;;;;;5087365;28;20541;-88
2024/01/19 06:06:24;;;;;;;17.27;1.23;;;0.10;99.90;;;;;;5068982;28;20905;-88
2024/01/19 06:08:49;;;;;;;12.37;0.83;;;0.10;99.90;;;;;;5068963;28;20982;-88
2024/01/19 06:11:15;;;;;;;12.90;0.60;;;0.10;99.90;;;;;;5085331;28;20412;-87
2024/01/19 06:13:41;;;;;;;15.93;0.82;;;0.00;99.90;;;;;;5068853;28;20444;-87
2024/01/19 06:16:07;;;;;;;13.97;0.83;;;-0.10;99.90;;;;;;5067661;28;20455;-87
2024/01/19 06:18:34;;;;;;;16.30;0.90;;;-0.40;99.90;;;;;;5071077;28;20475;-88
2024/01/19 06:21:02;;;;;;;11.48;0.60;;;-0.30;99.90;;;;;;5071490;28;20972;-88
2024/01/19 06:23:28;;;;;;;13.40;0.75;;;-0.40;99.90;;;;;;5071785;28;20430;-86
2024/01/19 06:25:54;;;;;;;12.97;0.77;;;-0.40;99.90;;;;;;5088661;28;20413;-87
2024/01/19 06:28:21;;;;;;;12.25;0.80;;;-0.50;99.90;;;;;;5071755;28;20831;-87
2024/01/19 06:30:46;;;;;;;12.82;1.70;;;-0.60;99.90;;;;;;5089192;28;20485;-87
2024/01/19 06:33:12;;;;;;;11.98;1.95;;;-0.70;99.90;;;;;;5068724;28;20852;-88
2024/01/19 06:35:38;;;;;;;13.80;2.45;;;-0.80;99.90;;;;;;5072531;28;20494;-87
2024/01/19 06:38:06;;;;;;;15.10;2.60;;;-0.80;99.90;;;;;;5071586;28;20418;-88
2024/01/19 06:40:32;;;;;;;15.50;2.80;;;-0.90;99.90;;;;;;5072694;28;20888;-88
2024/01/19 06:42:58;;;;;;;12.90;2.30;;;-0.90;99.90;;;;;;5087936;28;20434;-88
2024/01/19 06:45:23;;;;;;;12.68;1.40;;;-0.90;99.90;;;;;;5072340;28;20915;-88
2024/01/19 06:47:49;;;;;;;12.90;1.20;;;-0.90;99.90;;;;;;5072756;28;20402;-88
2024/01/19 06:50:14;;;;;;;9.60;1.40;;;-0.90;99.90;;;;;;5071892;28;20438;-89
2024/01/19 06:52:40;;;;;;;9.90;1.10;;;-0.50;99.90;;;;;;5072643;28;20398;-88
2024/01/19 06:55:06;;;;;;;11.98;1.50;;;-0.80;99.90;;;;;;5070876;28;20485;-87
2024/01/19 06:57:31;;;;;;;8.85;1.10;;;-0.70;99.90;;;;;;5089159;28;20405;-88
2024/01/19 06:59:57;;;;;;;12.75;1.38;;;-0.70;99.90;;;;;;5087651;28;20402;-88
2024/01/19 07:02:23;;;;;;;9.93;1.10;;;-0.70;99.90;;;;;;5071381;28;20433;-88
2024/01/19 07:04:49;;;;;;;10.53;1.23;;;-0.70;99.90;;;;;;5071686;28;20450;-88
2024/01/19 07:07:15;;;;;;;11.52;1.23;;;-0.70;99.90;;;;;;5088008;28;20402;-88
2024/01/19 07:09:41;;;;;;;12.77;1.30;;;-0.70;99.90;;;;;;5072088;28;20486;-89
2024/01/19 07:12:06;;;;;;;15.13;1.63;;;-0.70;99.90;;;;;;5071021;28;20395;-89
2024/01/19 07:14:32;;;;;;;14.00;1.20;;;-0.60;99.90;;;;;;5072242;28;21106;-89
2024/01/19 07:16:58;;;;;;;8.03;0.90;;;-0.40;99.90;;;;;;5087822;28;20961;-88
2024/01/19 07:19:23;;;;;;;10.73;0.98;;;-0.60;99.90;;;;;;5088903;28;20920;-88
2024/01/19 07:21:49;;;;;;;10.98;1.23;;;-0.60;99.90;;;;;;5071108;28;20454;-87
2024/01/19 07:24:15;;;;;;;9.73;1.88;;;-0.40;99.90;;;;;;5087892;28;20460;-88
2024/01/19 07:26:41;;;;;;;10.82;1.35;;;-0.60;99.90;;;;;;5087993;28;20414;-88
2024/01/19 07:29:08;;;;;;;14.27;1.95;;;-0.60;99.90;;;;;;5070091;28;20494;-89
2024/01/19 07:31:35;;;;;;;13.27;1.57;;;-0.60;99.90;;;;;;5071524;28;20873;-88
2024/01/19 07:34:02;;;;;;;16.45;2.53;;;-0.50;99.90;;;;;;5070184;28;20481;-87
2024/01/19 07:36:27;;;;;;;8.95;1.67;;;-0.70;99.90;;;;;;5071838;28;20398;-91
2024/01/19 07:38:54;;;;;;;13.65;2.30;;;-0.30;99.90;;;;;;5070864;28;20415;-89
2024/01/19 07:41:20;;;;;;;11.17;2.03;;;-0.50;99.90;;;;;;5088015;28;20522;-89
2024/01/19 07:43:45;;;;;;;11.13;1.67;;;-0.50;99.90;;;;;;5088434;28;20402;-88
2024/01/19 07:46:12;;;;;;;12.30;1.93;;;-0.60;99.90;;;;;;5070598;28;20486;-88
2024/01/19 07:48:38;;;;;;;10.68;2.05;;;-0.60;99.90;;;;;;5072028;28;20847;-89
2024/01/19 07:51:04;;;;;;;11.80;1.65;;;-0.60;99.90;;;;;;5070181;28;20433;-90
2024/01/19 07:53:29;;;;;;;9.45;1.35;;;-0.60;99.90;;;;;;5071214;28;20449;-89
2024/01/19 07:55:55;;;;;;;15.18;2.00;;;-0.40;99.90;;;;;;5070222;28;20881;-89
2024/01/19 07:58:21;;;;;;;12.15;2.40;;;-0.50;99.90;;;;;;5071509;28;20406;-89
2024/01/19 08:00:47;;;;;;;11.82;1.40;;;-0.50;99.90;;;;;;5070503;28;20481;-88
2024/01/19 08:03:13;;;;;;;13.05;1.98;;;-0.40;99.90;;;;;;5070399;28;20947;-89
2024/01/19 08:05:39;;;;;;;13.57;2.40;;;0.10;99.90;;;;;;5071567;28;20842;-88
2024/01/19 08:08:05;;;;;;;13.27;3.08;;;-0.30;99.90;;;;;;5070295;28;20483;-90
2024/01/19 08:10:32;;;;;;;10.07;2.45;;;-0.10;99.90;;;;;;5071514;28;20501;-89
2024/01/19 08:12:59;;;;;;;12.63;2.20;;;-0.30;99.90;;;;;;5069846;28;20490;-90
2024/01/19 08:15:25;;;;;;;14.10;1.70;;;-0.30;99.90;;;;;;5071242;28;20753;-90
2024/01/19 08:17:50;;;;;;;13.15;1.75;;;-0.40;99.90;;;;;;5070433;28;20414;-89
2024/01/19 08:20:16;;;;;;;12.43;1.40;;;-0.40;99.90;;;;;;5069981;28;20402;-90
2024/01/19 08:22:42;;;;;;;10.40;1.40;;;-0.50;99.90;;;;;;5070598;28;20437;-89
2024/01/19 08:25:09;;;;;;;10.57;1.30;;;-0.50;99.90;;;;;;5070145;28;20515;-88
2024/01/19 08:27:35;;;;;;;12.97;1.50;;;-0.60;99.90;;;;;;5071625;28;20533;-89
2024/01/19 08:30:01;;;;;;;12.25;1.60;;;-0.30;99.90;;;;;;5069286;28;20406;-89
2024/01/19 08:32:26;;;;;;;12.70;1.30;;;-0.60;99.90;;;;;;5070785;28;20425;-89
2024/01/19 08:34:52;;;;;;;13.83;1.90;;;-0.60;99.90;;;;;;5070292;28;20481;-88
2024/01/19 08:37:18;;;;;;;12.18;1.33;;;-0.50;99.90;;;;;;5087599;28;20889;-89
2024/01/19 08:39:46;;;;;;;16.33;2.20;;;-0.50;99.90;;;;;;5070257;28;20410;-90
2024/01/19 08:42:12;;;;;;;13.50;1.80;;;-0.40;99.90;;;;;;5069268;28;20983;-89
2024/01/19 08:44:37;;;;;;;12.13;2.57;;;-0.10;99.90;;;;;;5071068;28;20402;-89
2024/01/19 08:47:03;;;;;;;12.67;2.47;;;-0.30;99.90;;;;;;5069117;28;20422;-89
2024/01/19 08:49:29;;;;;;;14.98;2.58;;;-0.10;99.90;;;;;;5070412;28;20406;-89
2024/01/19 08:51:55;;;;;;;10.98;2.10;;;-0.20;99.90;;;;;;5086523;28;20547;-89
2024/01/19 08:54:20;;;;;;;11.95;2.45;;;-0.20;99.90;;;;;;5087078;28;20560;-90
2024/01/19 08:56:46;;;;;;;12.88;2.47;;;-0.10;99.90;;;;;;5069498;28;20396;-88
2024/01/19 08:59:13;;;;;;;13.13;1.80;;;-0.10;99.90;;;;;;5069573;28;20406;-88
2024/01/19 09:01:38;;;;;;;12.55;2.20;;;0.00;99.90;;;;;;5070327;28;20417;-88
2024/01/19 09:04:04;;;;;;;11.18;1.45;;;0.00;99.90;;;;;;5068975;28;20479;-89
2024/01/19 09:06:30;;;;;;;12.73;1.80;;;0.30;99.90;;;;;;5087171;28;20447;-88
2024/01/19 09:09:01;;;;;;;10.15;1.25;;;0.20;99.90;;;;;;5069366;28;20421;-87
2024/01/19 09:11:27;;;;;;;13.48;1.50;;;0.20;99.90;;;;;;5087037;28;20444;-88
2024/01/19 09:13:52;;;;;;;11.63;1.30;;;0.30;99.90;;;;;;5069201;28;20441;-89
2024/01/19 09:16:19;;;;;;;13.43;1.65;;;0.30;99.90;;;;;;5086520;28;20402;-88
2024/01/19 09:18:45;;;;;;;11.27;1.25;;;0.40;99.90;;;;;;5086733;28;20408;-87
2024/01/19 09:21:17;;;;;;;12.30;1.67;;;0.40;99.90;;;;;;5068747;28;20410;-88
2024/01/19 09:23:42;;;;;;;12.17;1.33;;;0.70;99.90;;;;;;5069567;28;20536;-87
2024/01/19 09:26:16;;;;;;;10.47;1.73;;;0.50;99.90;;;;;;5068129;28;21167;-87
2024/01/19 09:28:41;;;;;;;11.02;1.95;;;0.70;99.90;;;;;;5086623;28;20441;-88
2024/01/19 09:31:07;;;;;;;10.93;1.83;;;0.60;99.90;;;;;;5069053;28;20460;-88
2024/01/19 09:33:32;;;;;;;10.53;1.70;;;0.70;99.90;;;;;;5069382;28;20398;-88
2024/01/19 09:35:58;;;;;;;13.82;1.55;;;0.70;99.90;;;;;;5069840;28;20402;-87
2024/01/19 09:38:24;;;;;;;10.48;1.50;;;0.90;99.90;;;;;;5068954;28;20916;-89
2024/01/19 09:40:58;;;;;;;12.70;1.60;;;1.00;99.90;;;;;;5070181;28;20402;-88
2024/01/19 09:43:23;;;;;;;11.43;1.33;;;1.10;99.90;;;;;;5067984;28;20475;-88
2024/01/19 09:45:53;;;;;;;12.60;1.70;;;1.20;99.90;;;;;;5069999;28;20410;-89
2024/01/19 09:48:24;;;;;;;11.30;1.45;;;1.30;99.90;;;;;;5069171;28;20525;-88
2024/01/19 09:50:55;;;;;;;13.65;1.80;;;1.30;99.90;;;;;;5069499;28;20402;-88
2024/01/19 09:53:32;;;;;;;13.65;1.50;;;1.20;99.90;;;;;;5070786;28;20467;-88
2024/01/19 09:55:59;;;;;;;11.90;1.43;;;1.20;99.90;;;;;;5072691;28;21036;-88
2024/01/19 09:58:27;;;;;;;13.27;1.10;;;1.30;99.90;;;;;;5073771;28;20409;-88
2024/01/19 10:00:53;;;;;;;11.38;1.52;;;1.50;99.90;;;;;;5072298;28;20447;-89
2024/01/19 10:03:19;;;;;;;11.53;1.47;;;1.40;99.90;;;;;;5072957;28;20766;-88
2024/01/19 10:05:45;;;;;;;12.27;1.50;;;1.70;99.90;;;;;;5073075;28;20410;-88
2024/01/19 10:08:14;;;;;;;9.85;1.05;;;2.30;99.90;;;;;;5072229;28;20927;-89
2024/01/19 10:10:44;;;;;;;10.17;0.90;;;2.80;99.90;;;;;;5073410;28;20436;-89
2024/01/19 10:13:11;;;;;;;8.30;0.70;;;3.30;99.90;;;;;;5070952;28;20915;-88
2024/01/19 10:15:36;;;;;;;9.82;1.02;;;3.70;99.90;;;;;;5073146;28;20398;-92
2024/01/19 10:18:05;;;;;;;11.02;1.42;;;4.00;99.90;;;;;;5071593;28;20413;-88
2024/01/19 10:20:31;;;;;;;10.07;1.93;;;4.20;99.90;;;;;;5072364;28;20400;-89
2024/01/19 10:22:57;;;;;;;10.15;1.80;;;4.10;99.90;;;;;;5071460;28;20523;-88
2024/01/19 10:25:22;;;;;;;11.13;1.33;;;3.90;99.90;;;;;;5072337;28;20402;-89
2024/01/19 10:27:52;;;;;;;11.43;1.23;;;3.70;99.90;;;;;;5089547;28;20799;-89
2024/01/19 10:30:22;;;;;;;11.15;1.10;;;3.70;99.90;;;;;;5071397;28;20390;-89
2024/01/19 10:32:49;;;;;;;9.80;0.90;;;3.90;99.90;;;;;;5072824;28;20414;-89
2024/01/19 10:35:17;;;;;;;9.10;1.05;;;4.10;99.90;;;;;;5088619;28;20778;-90
2024/01/19 10:37:44;;;;;;;9.85;0.95;;;4.70;99.90;;;;;;5110417;28;20778;-90
2024/01/19 10:40:28;;;;;;;11.90;1.20;;;4.80;99.90;;;;;;5109126;28;20432;-88
2024/01/19 10:42:56;;;;;;;8.95;0.75;;;5.10;99.90;;;;;;5089057;28;20440;-89
2024/01/19 10:45:28;;;;;;;7.95;0.80;;;5.40;99.90;;;;;;5089717;28;20402;-88
2024/01/19 10:47:58;;;;;;;9.18;1.30;;;5.70;99.90;;;;;;5071484;28;20406;-89
2024/01/19 10:50:26;;;;;;;8.75;0.60;;;5.90;99.90;;;;;;5051251;28;20414;-90
2024/01/19 10:52:53;;;;;;;8.80;0.75;;;6.00;99.90;;;;;;5065328;28;20480;-89
2024/01/19 10:55:25;;;;;;;9.27;1.10;;;6.10;99.90;;;;;;5072269;28;20406;-90
2024/01/19 10:58:12;;;;;;;7.88;1.10;;;6.30;99.90;;;;;;5071623;28;20459;-89
2024/01/19 11:00:41;;;;;;;9.70;2.20;;;6.30;99.90;;;;;;5070744;28;20410;-90
2024/01/19 11:03:07;;;;;;;11.90;2.90;;;6.30;99.90;;;;;;5072841;28;20506;-90
2024/01/19 11:05:34;;;;;;;11.33;1.93;;;6.20;99.90;;;;;;5086674;28;20919;-91
2024/01/19 11:08:01;;;;;;;6.57;1.27;;;6.20;99.90;;;;;;5089527;28;20398;-91
2024/01/19 11:10:29;;;;;;;8.70;0.73;;;6.30;99.90;;;;;;5070966;28;20439;-90
2024/01/19 11:12:59;;;;;;;9.52;0.75;;;6.40;99.90;;;;;;5089140;28;20426;-89
2024/01/19 11:15:53;;;;;;;7.85;0.68;;;6.30;99.90;;;;;;5071953;28;20406;-89
2024/01/19 11:18:22;;;;;;;9.20;0.77;;;6.40;99.90;;;;;;5070578;28;20402;-89
2024/01/19 11:20:47;;;;;;;8.20;0.80;;;6.50;99.90;;;;;;5072066;28;20811;-92
2024/01/19 11:23:15;;;;;;;6.87;0.67;;;6.60;99.90;;;;;;5070775;28;20422;-89
2024/01/19 11:26:09;;;;;;;9.20;0.82;;;6.70;99.90;;;;;;5071557;28;20416;-90
2024/01/19 11:28:54;;;;;;;9.80;0.80;;;6.80;99.90;;;;;;5072548;28;20402;-90
2024/01/19 11:31:25;;;;;;;7.80;0.50;;;7.00;99.90;;;;;;5071041;28;20467;-90
2024/01/19 11:33:53;;;;;;;9.15;0.40;;;7.00;99.90;;;;;;5088992;28;20478;-92
2024/01/19 11:36:40;;;;;;;9.45;0.65;;;6.90;99.90;;;;;;5071257;28;20946;-91
2024/01/19 11:39:10;;;;;;;8.18;0.65;;;6.90;99.90;;;;;;5071205;28;20477;-90
2024/01/19 11:41:36;;;;;;;7.53;0.70;;;6.70;99.90;;;;;;5071605;28;20398;-90
2024/01/19 11:44:11;;;;;;;10.00;0.73;;;6.50;99.90;;;;;;5070232;28;20412;-89
2024/01/19 11:46:45;;;;;;;9.85;0.73;;;6.40;99.90;;;;;;5071942;28;21033;-89
2024/01/19 11:49:30;;;;;;;9.52;0.68;;;6.30;99.90;;;;;;5070635;28;20413;-90
2024/01/19 11:51:56;;;;;;;7.80;0.95;;;5.80;99.90;;;;;;5070884;28;20410;-90
2024/01/19 11:54:29;;;;;;;8.07;0.88;;;5.70;99.90;;;;;;5071857;28;20935;-91
2024/01/19 11:57:21;;;;;;;9.10;0.90;;;5.90;99.90;;;;;;5070050;28;20424;-90
2024/01/19 11:59:47;;;;;;;9.13;1.00;;;6.00;99.90;;;;;;5071926;28;20919;-92
2024/01/19 12:02:33;;;;;;;7.68;0.55;;;6.30;99.90;;;;;;5070653;28;20781;-89
2024/01/19 12:05:04;;;;;;;7.38;0.82;;;6.60;99.90;;;;;;5070418;28;20490;-94
2024/01/19 12:07:30;;;;;;;8.95;0.60;;;6.80;99.90;;;;;;5071365;28;20405;-89
2024/01/19 12:10:08;;;;;;;6.10;0.50;;;7.00;99.90;;;;;;5070241;28;20406;-92
2024/01/19 12:12:34;;;;;;;7.28;0.60;;;6.90;99.90;;;;;;5071786;28;20444;-92
2024/01/19 12:15:05;;;;;;;7.95;0.70;;;7.30;99.90;;;;;;5070042;28;20401;-87
2024/01/19 12:17:32;;;;;;;9.57;0.88;;;7.40;99.90;;;;;;5070227;28;21002;-90
2024/01/19 12:19:58;;;;;;;7.15;0.45;;;7.80;99.90;;;;;;5069982;28;20398;-88
2024/01/19 12:22:24;;;;;;;8.40;0.70;;;7.90;99.90;;;;;;5069133;28;20864;-87
2024/01/19 12:24:50;;;;;;;8.45;0.68;;;7.90;99.90;;;;;;5070141;28;20406;-88
2024/01/19 12:27:20;;;;;;;6.73;0.53;;;7.80;99.90;;;;;;5069332;28;20452;-89
2024/01/19 12:29:45;;;;;;;7.50;0.50;;;7.50;99.90;;;;;;5070921;28;20417;-91
2024/01/19 12:32:18;;;;;;;6.53;0.47;;;7.00;99.90;;;;;;5069207;28;20402;-88
2024/01/19 12:35:04;;;;;;;7.00;0.50;;;6.90;99.90;;;;;;5069936;28;20414;-88
2024/01/19 12:37:30;;;;;;;7.93;0.70;;;6.70;99.90;;;;;;5070069;28;20814;-91
2024/01/19 12:40:15;;;;;;;7.55;0.60;;;6.60;99.90;;;;;;5069622;28;20431;-94
2024/01/19 12:42:42;;;;;;;6.60;0.40;;;6.50;99.90;;;;;;5070819;28;20430;-88
2024/01/19 12:45:10;;;;;;;6.10;0.60;;;6.70;99.90;;;;;;5085554;28;20414;-88
2024/01/19 12:47:44;;;;;;;7.88;0.63;;;6.30;99.90;;;;;;5069900;28;20438;-90